Holy Angel — WDE3457 — position and weather

sailwx.info

Track history (hours):
 
Tides and Currents Weather Stations Pressure Air Temp Water Temp Dewpoint Dewpoint Depression Visibility Wind Speed Wind Dir Waves Ship Positions

Holy Angel

Owner: Marquette transportation Company LLC, Paducah, KY. More information available from US FCC via Universal Licensing System and Coast Guard Vessel Documentation Center.

Last reported at 2017-Jul-22 11:30 UTC. Time now 2017-Nov-22 11:19 UTC.
Position N 40°42' W 091°07'.
Warning: this ship's position is months out of date.

Length 40 m; draft 3 m.

Type: Towing. MMSI: 367339320.

Date/timePositionNaut miles runAvg speedWind from/ knotsBaromVisibWave heightAir tempDewpointWater temp
2017-Jul-22 11:30N 40°42' W 091°07'3 4.4
2017-Jul-22 10:52N 40°45' W 091°07'2 4.4
2017-Jul-22 10:30N 40°46' W 091°06'2 4.4
2017-Jul-22 10:00N 40°48' W 091°06'2 4.3
2017-Jul-22 09:30N 40°50' W 091°04'2 4.8
2017-Jul-22 09:00N 40°52' W 091°03'1 2.4
2017-Jul-22 08:30N 40°53' W 091°01'0 0.2
2017-Jul-22 08:00N 40°53' W 091°01'0 0.0
2017-Jul-22 07:30N 40°53' W 091°01'0 0.7
2017-Jul-22 07:00N 40°53' W 091°01'1 2.1
2017-Jul-22 06:30N 40°54' W 091°00'2 4.6
2017-Jul-22 06:00N 40°55' W 090°58'2 4.8
2017-Jul-22 05:30N 40°58' W 090°57'2 4.7
2017-Jul-22 05:00N 41°00' W 090°57'3 5.2
2017-Jul-22 04:30N 41°03' W 090°57'3 5.0
2017-Jul-22 04:00N 41°05' W 090°57'2 4.8
2017-Jul-22 03:30N 41°07' W 090°58'3 5.2
2017-Jul-22 03:00N 41°10' W 090°60'  
Track history (hours):
 
Tides and Currents Weather Stations Pressure Air Temp Water Temp Dewpoint Dewpoint Depression Visibility Wind Speed Wind Dir Waves Ship Positions

Holy Angel

Owner: Marquette transportation Company LLC, Paducah, KY. More information available from US FCC via Universal Licensing System and Coast Guard Vessel Documentation Center.

Last reported at 2017-Jul-22 11:30 UTC. Time now 2017-Nov-22 11:19 UTC.
Position N 40°42' W 091°07'.
Warning: this ship's position is months out of date.

Length 40 m; draft 3 m.

Type: Towing. MMSI: 367339320.

Date/timePositionNaut miles runAvg speedWind from/ knotsBaromVisibWave heightAir tempDewpointWater temp
2017-Jul-22 11:30N 40°42' W 091°07'3 4.4
2017-Jul-22 10:52N 40°45' W 091°07'2 4.4
2017-Jul-22 10:30N 40°46' W 091°06'2 4.4
2017-Jul-22 10:00N 40°48' W 091°06'2 4.3
2017-Jul-22 09:30N 40°50' W 091°04'2 4.8
2017-Jul-22 09:00N 40°52' W 091°03'1 2.4
2017-Jul-22 08:30N 40°53' W 091°01'0 0.2
2017-Jul-22 08:00N 40°53' W 091°01'0 0.0
2017-Jul-22 07:30N 40°53' W 091°01'0 0.7
2017-Jul-22 07:00N 40°53' W 091°01'1 2.1
2017-Jul-22 06:30N 40°54' W 091°00'2 4.6
2017-Jul-22 06:00N 40°55' W 090°58'2 4.8
2017-Jul-22 05:30N 40°58' W 090°57'2 4.7
2017-Jul-22 05:00N 41°00' W 090°57'3 5.2
2017-Jul-22 04:30N 41°03' W 090°57'3 5.0
2017-Jul-22 04:00N 41°05' W 090°57'2 4.8
2017-Jul-22 03:30N 41°07' W 090°58'3 5.2
2017-Jul-22 03:00N 41°10' W 090°60'  

Dump ship's entire track history